createdAt,value
2023-02-22T00:05:13.546Z,4.87
2023-02-22T00:15:22.614Z,4.89
2023-02-22T00:25:29.996Z,4.85
2023-02-22T00:35:37.137Z,4.76
2023-02-22T00:45:44.969Z,4.68
2023-02-22T00:55:53.069Z,4.59
2023-02-22T01:06:00.176Z,4.59
2023-02-22T01:16:07.015Z,4.66
2023-02-22T01:26:14.259Z,4.78
2023-02-22T01:36:22.723Z,4.74
2023-02-22T01:46:31.733Z,4.61
2023-02-22T01:56:41.940Z,4.53
2023-02-22T02:06:49.730Z,4.51
2023-02-22T02:17:02.839Z,4.55
2023-02-22T02:27:11.730Z,4.62
2023-02-22T02:37:21.958Z,4.57
2023-02-22T02:47:33.047Z,4.52
2023-02-22T02:57:40.593Z,4.45
2023-02-22T03:07:46.967Z,4.45
2023-02-22T03:17:53.769Z,4.56
2023-02-22T03:28:01.940Z,4.68
2023-02-22T03:38:13.393Z,4.68
2023-02-22T03:48:24.705Z,4.51
2023-02-22T03:58:35.998Z,4.38
2023-02-22T04:08:44.278Z,4.36
2023-02-22T04:18:51.558Z,4.39
2023-02-22T04:28:58.806Z,4.43
2023-02-22T04:39:06.558Z,4.39
2023-02-22T04:49:13.560Z,4.20
2023-02-22T04:59:21.180Z,4.03
2023-02-22T05:09:28.557Z,3.98
2023-02-22T05:19:36.163Z,4.00
2023-02-22T05:29:43.084Z,4.11
2023-02-22T05:39:51.201Z,4.15
2023-02-22T05:49:58.351Z,4.11
2023-02-22T06:00:08.055Z,4.02
2023-02-22T06:10:15.382Z,4.00
2023-02-22T06:20:22.798Z,4.14
2023-02-22T06:30:31.886Z,4.31
2023-02-22T06:40:39.024Z,4.48
2023-02-22T06:50:46.514Z,4.49
2023-02-22T07:00:53.791Z,4.48
2023-02-22T07:11:01.012Z,4.55
2023-02-22T07:21:05.700Z,4.77
2023-02-22T07:31:12.868Z,4.90
2023-02-22T07:41:20.035Z,4.98
2023-02-22T07:51:27.747Z,5.07
2023-02-22T08:01:37.379Z,5.20
2023-02-22T08:11:44.728Z,5.46
2023-02-22T08:21:51.904Z,5.79
2023-02-22T08:31:59.270Z,6.00
2023-02-22T08:42:05.279Z,6.14
2023-02-22T08:52:10.388Z,6.35
2023-02-22T09:02:15.334Z,6.45
2023-02-22T09:12:22.552Z,6.42
2023-02-22T09:22:30.231Z,6.47
2023-02-22T09:32:39.395Z,6.60
2023-02-22T09:42:49.664Z,6.61
2023-02-22T09:52:55.379Z,6.54
2023-02-22T10:02:59.610Z,6.90
2023-02-22T10:13:06.140Z,7.40
2023-02-22T10:23:13.179Z,7.07
2023-02-22T10:33:26.856Z,7.06
2023-02-22T10:43:34.576Z,7.21
2023-02-22T10:53:41.863Z,7.33
2023-02-22T11:03:58.144Z,7.43
2023-02-22T11:14:06.912Z,7.33
2023-02-22T11:34:31.695Z,7.32
2023-02-22T11:44:36.418Z,7.08
2023-02-22T11:54:53.278Z,7.13
2023-02-22T12:05:08.470Z,7.59
2023-02-22T12:15:18.095Z,7.98
2023-02-22T12:25:26.803Z,8.04
2023-02-22T12:35:39.031Z,7.95
2023-02-22T12:45:44.436Z,7.92
2023-02-22T12:55:59.067Z,7.61
2023-02-22T13:06:12.598Z,7.46
2023-02-22T13:16:22.172Z,7.47
2023-02-22T13:26:32.535Z,7.39
2023-02-22T13:36:37.802Z,7.38
2023-02-22T13:47:08.801Z,7.23
2023-02-22T13:57:19.676Z,7.12
2023-02-22T14:07:51.805Z,7.11
2023-02-22T14:17:59.783Z,7.16
2023-02-22T14:28:07.570Z,7.01
2023-02-22T14:38:18.270Z,6.82
2023-02-22T14:48:29.069Z,6.59
2023-02-22T14:58:38.862Z,6.39
2023-02-22T15:08:47.599Z,6.16
2023-02-22T15:18:53.505Z,6.06
2023-02-22T15:29:02.311Z,6.01
2023-02-22T15:39:19.692Z,5.91
2023-02-22T15:49:29.620Z,5.71
2023-02-22T15:59:46.179Z,5.47
2023-02-22T16:09:54.456Z,5.13
2023-02-22T16:19:58.699Z,4.82
2023-02-22T16:30:15.530Z,4.53
2023-02-22T16:40:33.828Z,4.27
2023-02-22T16:50:40.938Z,4.04
2023-02-22T17:00:48.185Z,3.92
2023-02-22T17:10:57.183Z,3.83
2023-02-22T17:21:04.951Z,3.63
2023-02-22T17:31:19.041Z,3.41
2023-02-22T17:41:26.747Z,3.19
2023-02-22T17:51:33.911Z,3.00
2023-02-22T18:01:44.191Z,2.80
2023-02-22T18:11:51.485Z,2.74
2023-02-22T18:22:00.376Z,2.81
2023-02-22T18:32:08.245Z,2.80
2023-02-22T18:42:17.683Z,2.66
2023-02-22T18:52:24.977Z,2.52
2023-02-22T19:02:32.192Z,2.41
2023-02-22T19:12:39.675Z,2.40
2023-02-22T19:22:49.456Z,2.33
2023-02-22T19:32:55.087Z,2.14
2023-02-22T19:43:02.347Z,1.96
2023-02-22T19:53:14.099Z,1.80
2023-02-22T20:03:22.539Z,1.72
2023-02-22T20:13:30.139Z,1.64
2023-02-22T20:23:40.338Z,1.46
2023-02-22T20:33:50.084Z,1.29
2023-02-22T20:43:58.287Z,1.18
2023-02-22T20:54:06.940Z,1.12
2023-02-22T21:04:15.308Z,1.04
2023-02-22T21:14:24.561Z,0.87
2023-02-22T21:24:31.984Z,0.77
2023-02-22T21:34:39.358Z,0.75
2023-02-22T21:44:46.584Z,0.69
2023-02-22T21:54:53.729Z,0.50
2023-02-22T22:05:00.736Z,0.40
2023-02-22T22:15:09.644Z,0.36
2023-02-22T22:25:17.355Z,0.29
2023-02-22T22:35:24.665Z,0.15
2023-02-22T22:45:32.972Z,0.10
2023-02-22T22:55:41.091Z,0.11
2023-02-22T23:05:48.643Z,0.17
2023-02-22T23:15:55.890Z,0.11
2023-02-22T23:26:04.078Z,-0.00
2023-02-22T23:36:12.644Z,-0.02
2023-02-22T23:46:20.256Z,0.03
2023-02-22T23:56:29.175Z,0.07
